Time;durP1;ratioP1;P1;durP2;ratioP2;P2;SDS_P1;SDS_P2;PMS_P1;PMS_P2;Temp;Humidity;BMP_temperature;BMP_pressure;BME280_temperature;BME280_humidity;BME280_pressure;Samples;Min_cycle;Max_cycle;Signal;HPM_P1;HPM_P2
2023/02/05 00:02:15;;;;;;;4.85;3.20;;;2.10;92.30;;;;;;5018143;28;20558;-65
2023/02/05 00:05:01;;;;;;;6.13;2.92;;;2.10;92.30;;;;;;5014833;28;20026;-64
2023/02/05 00:07:46;;;;;;;5.70;3.15;;;2.10;92.30;;;;;;5025045;28;20041;-64
2023/02/05 00:10:33;;;;;;;5.63;2.92;;;2.10;92.20;;;;;;5017083;28;20069;-64
2023/02/05 00:13:19;;;;;;;4.15;2.63;;;2.10;92.20;;;;;;5039021;28;20511;-64
2023/02/05 00:16:10;;;;;;;5.25;2.97;;;2.10;92.10;;;;;;5031678;28;20109;-64
2023/02/05 00:18:56;;;;;;;8.10;3.13;;;2.10;92.10;;;;;;5048361;28;20086;-64
2023/02/05 00:21:43;;;;;;;6.35;2.70;;;2.10;92.10;;;;;;5005778;28;20050;-64
2023/02/05 00:24:29;;;;;;;4.95;2.90;;;2.10;92.10;;;;;;5013952;28;20039;-64
2023/02/05 00:27:14;;;;;;;5.75;2.95;;;2.10;92.20;;;;;;5016558;28;20061;-64
2023/02/05 00:30:00;;;;;;;4.10;2.85;;;2.10;92.10;;;;;;5031585;28;20034;-64
2023/02/05 00:32:46;;;;;;;6.47;3.40;;;2.10;92.10;;;;;;5014021;28;20116;-64
2023/02/05 00:35:32;;;;;;;4.82;2.88;;;2.10;92.10;;;;;;5014717;28;20034;-64
2023/02/05 00:38:18;;;;;;;6.47;3.63;;;2.10;92.10;;;;;;5013626;28;20037;-64
2023/02/05 00:41:04;;;;;;;8.20;3.20;;;2.10;92.30;;;;;;5016172;28;20076;-64
2023/02/05 00:43:50;;;;;;;5.97;3.55;;;2.10;92.10;;;;;;5029530;28;20091;-64
2023/02/05 00:46:36;;;;;;;8.27;4.55;;;2.10;92.20;;;;;;5032980;28;20120;-64
2023/02/05 00:49:22;;;;;;;10.32;5.88;;;2.10;92.20;;;;;;5015024;28;20038;-64
2023/02/05 00:52:08;;;;;;;8.40;5.80;;;2.10;92.20;;;;;;5002777;28;20022;-64
2023/02/05 00:54:54;;;;;;;11.10;5.93;;;2.10;92.20;;;;;;5015145;28;20069;-64
2023/02/05 00:57:40;;;;;;;8.77;5.65;;;2.10;92.30;;;;;;5015931;28;20096;-65
2023/02/05 01:00:26;;;;;;;8.27;5.72;;;2.10;92.30;;;;;;5014472;28;20038;-64
2023/02/05 01:03:12;;;;;;;10.50;6.13;;;2.10;92.30;;;;;;5026926;28;20048;-65
2023/02/05 01:05:58;;;;;;;10.68;5.85;;;2.10;92.30;;;;;;5033614;28;20087;-65
2023/02/05 01:08:44;;;;;;;10.25;5.13;;;2.10;92.30;;;;;;5017576;28;20507;-64
2023/02/05 01:11:30;;;;;;;10.93;5.07;;;2.10;92.40;;;;;;5032637;28;20029;-64
2023/02/05 01:14:16;;;;;;;7.65;4.43;;;2.20;92.40;;;;;;5021901;28;20080;-64
2023/02/05 01:17:02;;;;;;;6.75;3.80;;;2.20;92.40;;;;;;5031026;28;20037;-64
2023/02/05 01:19:48;;;;;;;7.13;4.00;;;2.10;92.30;;;;;;5013354;28;20040;-64
2023/02/05 01:22:34;;;;;;;7.82;3.33;;;2.10;92.30;;;;;;5023042;28;20124;-64
2023/02/05 01:25:20;;;;;;;6.25;3.15;;;2.10;92.40;;;;;;5027480;28;20033;-64
2023/02/05 01:28:06;;;;;;;7.53;3.42;;;2.00;92.30;;;;;;5031212;28;20026;-64
2023/02/05 01:30:52;;;;;;;6.82;4.03;;;2.00;92.30;;;;;;5024942;28;20401;-64
2023/02/05 01:33:38;;;;;;;4.20;2.65;;;2.10;92.30;;;;;;5017596;28;20049;-64
2023/02/05 01:36:24;;;;;;;4.75;2.60;;;2.00;92.20;;;;;;5042183;28;20044;-63
2023/02/05 01:39:10;;;;;;;7.07;3.70;;;2.10;92.10;;;;;;5029897;28;20396;-63
2023/02/05 01:41:56;;;;;;;7.90;2.97;;;2.10;92.00;;;;;;5049667;28;20412;-63
2023/02/05 01:44:42;;;;;;;8.38;3.22;;;2.00;92.10;;;;;;5015968;28;20030;-63
2023/02/05 01:47:28;;;;;;;5.15;3.35;;;2.00;92.10;;;;;;5012835;28;20033;-63
2023/02/05 01:50:16;;;;;;;6.75;3.20;;;1.90;92.10;;;;;;5020262;28;20029;-63
2023/02/05 01:53:07;;;;;;;8.68;3.13;;;1.90;92.10;;;;;;5033359;28;20488;-63
2023/02/05 01:56:07;;;;;;;6.55;3.55;;;1.90;92.10;;;;;;5013990;28;20030;-63
2023/02/05 01:58:57;;;;;;;8.15;3.40;;;1.80;92.10;;;;;;5012552;28;20041;-64
2023/02/05 02:01:43;;;;;;;7.25;3.42;;;1.80;92.00;;;;;;5026142;28;20061;-64
2023/02/05 02:04:43;;;;;;;4.65;2.65;;;1.70;92.10;;;;;;5022188;28;20071;-64
2023/02/05 02:07:30;;;;;;;6.57;3.42;;;1.70;92.20;;;;;;5012677;28;20107;-63
2023/02/05 02:10:18;;;;;;;6.38;3.30;;;1.70;92.20;;;;;;5027844;28;20032;-63
2023/02/05 02:13:04;;;;;;;6.25;3.03;;;1.70;92.20;;;;;;5021198;28;20026;-63
2023/02/05 02:15:50;;;;;;;7.07;3.13;;;1.70;92.30;;;;;;5036397;28;20456;-63
2023/02/05 02:18:38;;;;;;;5.50;3.28;;;1.70;92.40;;;;;;5018604;28;20116;-63
2023/02/05 02:21:30;;;;;;;4.75;3.33;;;1.60;92.50;;;;;;5045195;28;20040;-63
2023/02/05 02:24:57;;;;;;;6.40;3.65;;;1.60;92.60;;;;;;5016047;28;20396;-63
2023/02/05 02:28:03;;;;;;;6.07;3.42;;;1.60;92.70;;;;;;4995258;28;20451;-63
2023/02/05 02:31:02;;;;;;;;;;;1.60;92.70;;;;;;5024124;28;20396;-63
2023/02/05 02:33:51;;;;;;;5.93;3.10;;;1.60;92.70;;;;;;5018226;28;19909;-63
2023/02/05 02:37:09;;;;;;;7.20;3.00;;;1.60;92.80;;;;;;5025585;28;20100;-63
2023/02/05 02:40:00;;;;;;;5.28;3.08;;;1.60;92.80;;;;;;5041439;28;20032;-63
2023/02/05 02:42:53;;;;;;;7.95;4.10;;;1.60;92.90;;;;;;5017380;28;20033;-64
2023/02/05 02:45:50;;;;;;;6.20;3.47;;;1.70;92.90;;;;;;5000840;28;20403;-63
2023/02/05 02:48:38;;;;;;;7.40;3.25;;;1.60;93.00;;;;;;5029716;28;20045;-63
2023/02/05 02:51:27;;;;;;;7.78;3.30;;;1.60;93.00;;;;;;5014736;28;20068;-64
2023/02/05 02:54:16;;;;;;;6.18;3.42;;;1.60;93.00;;;;;;5026393;28;20061;-63
2023/02/05 03:00:45;;;;;;;6.30;4.10;;;1.70;93.00;;;;;;5012539;28;20042;-63
2023/02/05 03:03:35;;;;;;;6.15;3.80;;;1.70;93.00;;;;;;4995158;28;20404;-63
2023/02/05 03:06:21;;;;;;;6.70;4.18;;;1.60;93.00;;;;;;5025667;28;20033;-62
2023/02/05 03:09:33;;;;;;;6.32;3.65;;;1.60;93.10;;;;;;5023819;28;20402;-63
2023/02/05 03:12:20;;;;;;;6.00;3.60;;;1.60;93.00;;;;;;5011601;28;20034;-63
2023/02/05 03:15:06;;;;;;;6.45;3.70;;;1.60;93.10;;;;;;5017252;28;20104;-63
2023/02/05 03:17:54;;;;;;;6.78;3.50;;;1.60;93.10;;;;;;4991060;28;20085;-63
2023/02/05 03:21:19;;;;;;;8.77;3.53;;;1.50;93.10;;;;;;5024404;28;20108;-63
2023/02/05 03:24:06;;;;;;;5.70;3.90;;;1.50;93.20;;;;;;5019801;28;20030;-63
2023/02/05 03:26:52;;;;;;;8.10;4.18;;;1.50;93.20;;;;;;4991901;28;20046;-63
2023/02/05 03:29:43;;;;;;;6.13;3.90;;;1.50;93.30;;;;;;4999124;28;20034;-63
2023/02/05 03:32:35;;;;;;;7.78;3.50;;;1.50;93.30;;;;;;4995119;28;20053;-63
2023/02/05 03:35:50;;;;;;;4.65;3.30;;;1.50;93.30;;;;;;5020531;28;20037;-63
2023/02/05 03:38:48;;;;;;;6.80;3.63;;;1.60;93.40;;;;;;5021598;28;20428;-65
2023/02/05 03:41:57;;;;;;;7.68;3.95;;;1.60;93.30;;;;;;5016967;28;20028;-64
2023/02/05 03:45:01;;;;;;;7.05;3.28;;;1.60;93.30;;;;;;5018575;28;20054;-64
2023/02/05 03:48:13;;;;;;;4.63;3.38;;;1.60;93.30;;;;;;5036213;28;20055;-64
2023/02/05 03:51:22;;;;;;;5.80;3.72;;;1.50;93.30;;;;;;4998211;28;20117;-64
2023/02/05 03:54:45;;;;;;;6.20;3.45;;;1.50;93.30;;;;;;5000181;28;20053;-64
2023/02/05 03:57:46;;;;;;;6.93;3.70;;;1.50;93.40;;;;;;5004094;28;20069;-64
2023/02/05 04:00:33;;;;;;;5.88;4.00;;;1.50;93.40;;;;;;5028310;28;20049;-64
2023/02/05 04:03:19;;;;;;;6.30;3.92;;;1.50;93.50;;;;;;5053801;28;20041;-64
2023/02/05 04:06:05;;;;;;;6.95;4.22;;;1.50;93.50;;;;;;5027869;28;20049;-64
2023/02/05 04:08:51;;;;;;;7.32;4.05;;;1.50;93.50;;;;;;5028499;28;20112;-63
2023/02/05 04:11:37;;;;;;;8.35;3.55;;;1.50;93.60;;;;;;5012180;28;20465;-64
2023/02/05 04:14:23;;;;;;;6.55;4.25;;;1.50;93.60;;;;;;5014023;28;20037;-63
2023/02/05 04:17:11;;;;;;;8.18;4.13;;;1.50;93.90;;;;;;5052075;28;20144;-63
2023/02/05 04:19:57;;;;;;;6.10;3.78;;;1.60;93.70;;;;;;5037510;28;20056;-68
2023/02/05 04:22:43;;;;;;;6.38;3.47;;;1.60;93.70;;;;;;5036928;28;20140;-68
2023/02/05 04:25:28;;;;;;;6.22;3.40;;;1.70;93.70;;;;;;5025533;28;20526;-68
2023/02/05 04:28:14;;;;;;;4.78;3.28;;;1.70;93.70;;;;;;5032985;28;20033;-67
2023/02/05 04:31:00;;;;;;;5.65;3.47;;;1.70;93.60;;;;;;5026286;28;20057;-69
2023/02/05 04:33:46;;;;;;;5.35;3.25;;;1.70;93.60;;;;;;5039914;28;20033;-68
2023/02/05 04:36:32;;;;;;;6.35;3.20;;;1.70;93.60;;;;;;5008062;28;20041;-69
2023/02/05 04:39:18;;;;;;;5.30;3.45;;;1.70;93.60;;;;;;5019607;28;20130;-68
2023/02/05 04:42:04;;;;;;;5.90;4.10;;;1.70;93.60;;;;;;5013662;28;20049;-67
2023/02/05 04:44:52;;;;;;;4.70;3.05;;;1.60;93.60;;;;;;5026856;28;20033;-67
2023/02/05 04:47:38;;;;;;;5.97;3.05;;;1.60;93.60;;;;;;5014403;28;20030;-67
2023/02/05 04:50:25;;;;;;;7.45;3.63;;;1.60;93.60;;;;;;5023260;28;20034;-69
2023/02/05 04:53:11;;;;;;;4.50;3.10;;;1.60;93.60;;;;;;5014145;28;20511;-70
2023/02/05 04:56:15;;;;;;;5.40;3.00;;;1.60;93.60;;;;;;5033209;28;20062;-69
2023/02/05 04:59:01;;;;;;;5.00;2.70;;;1.70;93.60;;;;;;5034854;28;20086;-70
2023/02/05 05:01:47;;;;;;;4.88;2.97;;;1.70;93.60;;;;;;5026597;28;20192;-69
2023/02/05 05:04:32;;;;;;;4.82;2.78;;;1.70;93.60;;;;;;5032260;28;20022;-68
2023/02/05 05:07:18;;;;;;;5.25;2.72;;;1.70;93.50;;;;;;5013748;28;20057;-68
2023/02/05 05:10:08;;;;;;;3.95;2.85;;;1.70;93.50;;;;;;5028074;28;20010;-68
2023/02/05 05:12:54;;;;;;;5.88;3.15;;;1.70;93.50;;;;;;5017328;28;20079;-69
2023/02/05 05:15:39;;;;;;;5.50;3.08;;;1.70;93.50;;;;;;5015892;28;20768;-68
2023/02/05 05:18:26;;;;;;;4.75;2.90;;;1.70;93.50;;;;;;5026232;28;20374;-68
2023/02/05 05:21:12;;;;;;;4.82;2.97;;;1.70;93.60;;;;;;5018259;28;20025;-68
2023/02/05 05:23:58;;;;;;;5.53;3.08;;;1.70;93.60;;;;;;5039284;28;20033;-68
2023/02/05 05:26:45;;;;;;;5.18;3.33;;;1.70;93.50;;;;;;5035973;28;20039;-68
2023/02/05 05:29:31;;;;;;;4.85;3.10;;;1.70;93.60;;;;;;5023743;28;20036;-68
2023/02/05 05:32:17;;;;;;;6.05;3.03;;;1.70;93.50;;;;;;5042653;28;20057;-68
2023/02/05 05:35:03;;;;;;;5.63;2.78;;;1.70;93.60;;;;;;5034241;28;20026;-69
2023/02/05 05:37:49;;;;;;;6.53;3.72;;;1.70;93.50;;;;;;5031376;28;20045;-69
2023/02/05 05:43:48;;;;;;;7.32;3.08;;;1.70;93.60;;;;;;5026364;28;20048;-69
2023/02/05 05:46:35;;;;;;;5.18;2.92;;;1.60;93.50;;;;;;5027483;28;20037;-68
2023/02/05 05:49:21;;;;;;;9.00;3.10;;;1.60;93.50;;;;;;5015453;28;20037;-68
2023/02/05 05:52:07;;;;;;;8.07;3.28;;;1.60;93.50;;;;;;5036094;28;20132;-69
2023/02/05 05:54:53;;;;;;;5.40;3.00;;;1.60;93.50;;;;;;5036635;28;20579;-69
2023/02/05 05:57:39;;;;;;;4.45;2.60;;;1.60;93.50;;;;;;5013888;28;20575;-69
2023/02/05 06:00:24;;;;;;;4.25;2.70;;;1.60;93.50;;;;;;5010376;28;20276;-68
2023/02/05 06:03:11;;;;;;;6.70;4.00;;;1.70;93.50;;;;;;5022926;28;20033;-68
2023/02/05 06:06:00;;;;;;;5.85;3.42;;;1.60;93.50;;;;;;5020227;28;20108;-68
2023/02/05 06:08:46;;;;;;;6.28;3.20;;;1.60;93.50;;;;;;5027693;28;20086;-68
2023/02/05 06:11:32;;;;;;;8.38;3.25;;;1.60;93.50;;;;;;5016255;28;20044;-68
2023/02/05 06:14:18;;;;;;;4.90;3.33;;;1.60;93.50;;;;;;5048376;28;20033;-69
2023/02/05 06:17:04;;;;;;;5.55;3.20;;;1.60;93.50;;;;;;5011049;28;20472;-69
2023/02/05 06:19:49;;;;;;;5.55;3.25;;;1.60;93.50;;;;;;5020045;28;20026;-68
2023/02/05 06:22:35;;;;;;;4.72;3.15;;;1.60;93.50;;;;;;5038876;28;20037;-69
2023/02/05 06:25:21;;;;;;;6.25;3.95;;;1.60;93.60;;;;;;5000948;28;20497;-69
2023/02/05 06:28:07;;;;;;;5.63;3.08;;;1.60;93.50;;;;;;5025653;28;20092;-69
2023/02/05 06:30:53;;;;;;;6.43;5.00;;;1.50;93.50;;;;;;5023269;28;20029;-69
2023/02/05 06:33:39;;;;;;;5.10;3.58;;;1.50;93.60;;;;;;5029028;28;20037;-69
2023/02/05 06:36:25;;;;;;;6.32;4.43;;;1.50;93.60;;;;;;5024880;28;20083;-69
2023/02/05 06:39:11;;;;;;;6.60;4.10;;;1.50;93.70;;;;;;5026377;28;20042;-68
2023/02/05 06:41:57;;;;;;;6.97;4.22;;;1.50;93.70;;;;;;5039135;28;20045;-68
2023/02/05 06:44:43;;;;;;;5.93;3.65;;;1.50;93.70;;;;;;5037765;28;20040;-67
2023/02/05 06:47:29;;;;;;;6.00;4.03;;;1.50;93.70;;;;;;5046597;28;20040;-69
2023/02/05 06:50:15;;;;;;;7.63;4.28;;;1.50;93.70;;;;;;5018976;28;20039;-70
2023/02/05 06:53:01;;;;;;;5.18;3.85;;;1.50;93.70;;;;;;5036787;28;20044;-70
2023/02/05 06:55:47;;;;;;;8.75;4.82;;;1.60;93.80;;;;;;5023328;28;20529;-70
2023/02/05 06:58:33;;;;;;;6.85;4.72;;;1.60;93.80;;;;;;5046588;28;20373;-70
2023/02/05 07:01:19;;;;;;;8.27;4.15;;;1.60;93.80;;;;;;5036993;28;20071;-69
2023/02/05 07:04:05;;;;;;;8.50;4.82;;;1.60;93.90;;;;;;5031218;28;20370;-69
2023/02/05 07:06:53;;;;;;;8.85;4.57;;;1.70;94.00;;;;;;5038349;28;20040;-69
2023/02/05 07:09:39;;;;;;;7.68;4.38;;;1.70;94.00;;;;;;5027747;28;20040;-69
2023/02/05 07:12:25;;;;;;;9.65;4.72;;;1.70;94.00;;;;;;5009151;28;20032;-70
2023/02/05 07:15:11;;;;;;;6.70;4.10;;;1.70;94.00;;;;;;5040150;28;20401;-71
2023/02/05 07:17:57;;;;;;;7.93;3.80;;;1.80;94.10;;;;;;5017876;28;20034;-69
2023/02/05 07:20:43;;;;;;;5.20;3.65;;;1.80;94.10;;;;;;5039973;28;20040;-70
2023/02/05 07:23:29;;;;;;;8.00;3.83;;;1.90;94.10;;;;;;5033330;28;20071;-69
2023/02/05 07:26:16;;;;;;;5.72;3.95;;;2.00;94.00;;;;;;5035688;28;20516;-69
2023/02/05 07:29:03;;;;;;;4.68;2.97;;;2.00;93.90;;;;;;5021517;28;20074;-69
2023/02/05 07:31:49;;;;;;;4.93;3.03;;;2.00;93.90;;;;;;5018116;28;20062;-69
2023/02/05 07:34:35;;;;;;;5.85;3.50;;;2.00;93.80;;;;;;5050109;28;20396;-70
2023/02/05 07:37:21;;;;;;;4.40;3.22;;;2.00;93.70;;;;;;5016699;28;20414;-70
2023/02/05 07:40:08;;;;;;;5.78;3.58;;;2.00;93.70;;;;;;5017798;28;20026;-69
2023/02/05 07:42:54;;;;;;;10.05;3.83;;;2.00;93.70;;;;;;5025256;28;20052;-69
2023/02/05 07:45:40;;;;;;;6.30;3.45;;;2.00;93.70;;;;;;5022167;28;20030;-70
2023/02/05 07:48:26;;;;;;;6.30;3.70;;;2.10;93.60;;;;;;5023164;28;20064;-70
2023/02/05 07:51:21;;;;;;;5.60;3.45;;;2.00;93.60;;;;;;5019811;28;20037;-70
2023/02/05 07:54:08;;;;;;;6.25;3.63;;;2.00;93.50;;;;;;5030131;28;20025;-71
2023/02/05 07:56:54;;;;;;;4.85;3.40;;;2.00;93.50;;;;;;5012434;28;20088;-70
2023/02/05 07:59:40;;;;;;;6.72;3.72;;;2.10;93.50;;;;;;5011006;28;20058;-71
2023/02/05 08:02:26;;;;;;;8.50;4.32;;;2.10;93.50;;;;;;5003160;28;20037;-70
2023/02/05 08:05:12;;;;;;;7.18;4.72;;;2.00;93.40;;;;;;5014538;28;20098;-69
2023/02/05 08:07:58;;;;;;;7.85;4.53;;;2.10;93.50;;;;;;4997432;28;20027;-71
2023/02/05 08:10:44;;;;;;;8.40;3.88;;;2.10;93.50;;;;;;5001736;28;20048;-69
2023/02/05 08:13:30;;;;;;;7.13;4.50;;;2.10;93.60;;;;;;4996271;28;20035;-71
2023/02/05 08:16:16;;;;;;;7.00;4.32;;;2.20;93.60;;;;;;4985071;28;20501;-72
2023/02/05 08:19:02;;;;;;;8.00;4.53;;;2.10;93.60;;;;;;4994312;28;20041;-69
2023/02/05 08:21:48;;;;;;;7.80;4.53;;;2.10;93.60;;;;;;4995026;28;20038;-70
2023/02/05 08:24:34;;;;;;;6.97;4.22;;;2.20;93.60;;;;;;4994829;28;20482;-72
2023/02/05 08:27:20;;;;;;;6.60;3.78;;;2.20;93.60;;;;;;5004184;28;20334;-71
2023/02/05 08:30:11;;;;;;;7.50;4.47;;;2.20;93.60;;;;;;4994817;28;20030;-71
2023/02/05 08:32:57;;;;;;;8.65;4.38;;;2.20;93.70;;;;;;4994906;28;20030;-68
2023/02/05 08:35:43;;;;;;;6.75;3.90;;;2.20;93.70;;;;;;5013721;28;20061;-68
2023/02/05 08:38:29;;;;;;;5.80;3.75;;;2.30;93.70;;;;;;4993424;28;20034;-68
2023/02/05 08:41:15;;;;;;;7.22;3.17;;;2.30;93.60;;;;;;4998685;28;20060;-68
2023/02/05 08:44:01;;;;;;;6.70;3.90;;;2.30;93.60;;;;;;5010380;28;20112;-69
2023/02/05 08:46:46;;;;;;;5.15;3.05;;;2.40;93.60;;;;;;5011881;28;20025;-68
2023/02/05 08:49:32;;;;;;;7.05;3.13;;;2.40;93.60;;;;;;4993131;28;20030;-68
2023/02/05 08:52:19;;;;;;;5.07;3.30;;;2.50;93.50;;;;;;4997820;28;20501;-69
2023/02/05 08:55:05;;;;;;;7.15;4.13;;;2.50;93.50;;;;;;4993378;28;20548;-69
2023/02/05 08:57:51;;;;;;;7.00;3.42;;;2.50;93.40;;;;;;5000044;28;20026;-67
2023/02/05 09:00:38;;;;;;;7.22;3.65;;;2.60;93.40;;;;;;5002990;28;20572;-66
2023/02/05 09:03:25;;;;;;;6.45;3.30;;;2.60;93.30;;;;;;4992968;28;20046;-67
2023/02/05 09:06:14;;;;;;;5.50;3.65;;;2.60;93.20;;;;;;5006795;28;20056;-66
2023/02/05 09:09:00;;;;;;;6.85;3.88;;;2.70;93.20;;;;;;4997486;28;20041;-66
2023/02/05 09:11:47;;;;;;;6.55;3.15;;;2.70;93.20;;;;;;4981591;28;20044;-67
2023/02/05 09:14:35;;;;;;;4.40;3.13;;;2.70;93.10;;;;;;5013269;28;20112;-67
2023/02/05 09:17:21;;;;;;;4.65;3.33;;;2.80;93.00;;;;;;5006176;28;20030;-67
2023/02/05 09:20:07;;;;;;;4.25;2.30;;;2.80;93.00;;;;;;5021687;28;20034;-67
2023/02/05 09:22:54;;;;;;;5.53;3.25;;;2.80;92.90;;;;;;4995799;28;20050;-67
2023/02/05 09:25:41;;;;;;;5.75;3.28;;;2.80;92.90;;;;;;4979181;28;20018;-66
2023/02/05 09:28:27;;;;;;;5.78;3.13;;;2.90;93.10;;;;;;4993816;28;20041;-67
2023/02/05 09:31:15;;;;;;;4.03;2.85;;;2.90;92.80;;;;;;5002916;28;20031;-66
2023/02/05 09:34:02;;;;;;;7.70;3.05;;;2.90;92.80;;;;;;4992042;28;20505;-66
2023/02/05 09:36:48;;;;;;;4.00;3.20;;;2.90;92.70;;;;;;4993431;28;20102;-66
2023/02/05 09:39:34;;;;;;;5.05;3.15;;;3.00;92.70;;;;;;4991652;28;20246;-66
2023/02/05 09:42:39;;;;;;;5.05;3.55;;;3.00;92.90;;;;;;4993274;28;20038;-66
2023/02/05 09:45:52;;;;;;;5.07;3.20;;;3.00;92.60;;;;;;5002453;28;20108;-66
2023/02/05 09:49:12;;;;;;;6.47;3.40;;;3.10;92.70;;;;;;4993128;28;20046;-66
2023/02/05 09:52:36;;;;;;;4.72;3.38;;;3.10;92.70;;;;;;4981852;28;20034;-66
2023/02/05 09:55:32;;;;;;;6.32;3.13;;;3.20;92.70;;;;;;4983222;28;20493;-66
2023/02/05 09:58:29;;;;;;;7.43;4.15;;;3.20;92.70;;;;;;5000148;28;20060;-66
2023/02/05 10:01:28;;;;;;;8.85;3.72;;;3.30;92.70;;;;;;5030009;28;20052;-66
2023/02/05 10:04:14;;;;;;;5.45;3.80;;;3.30;92.60;;;;;;5032149;28;20052;-65
2023/02/05 10:07:16;;;;;;;6.07;3.67;;;3.30;92.60;;;;;;5025100;28;20460;-67
2023/02/05 10:10:10;;;;;;;5.28;4.00;;;3.40;92.60;;;;;;5030783;28;20056;-67
2023/02/05 10:13:32;;;;;;;5.80;3.97;;;3.50;92.60;;;;;;5011927;28;20064;-67
2023/02/05 10:16:27;;;;;;;4.40;3.17;;;3.40;92.40;;;;;;5022577;28;20087;-67
2023/02/05 10:19:25;;;;;;;6.88;3.50;;;3.50;92.50;;;;;;5015069;28;20033;-67
2023/02/05 10:22:13;;;;;;;13.82;4.95;;;3.50;92.40;;;;;;5018409;28;20405;-67
2023/02/05 10:25:22;;;;;;;7.88;3.58;;;3.60;93.10;;;;;;5018645;28;20373;-67
2023/02/05 10:28:23;;;;;;;5.72;3.10;;;3.70;93.10;;;;;;5019009;28;20029;-67
2023/02/05 10:31:14;;;;;;;5.50;3.47;;;3.70;92.80;;;;;;5047184;28;20388;-67
2023/02/05 10:34:12;;;;;;;4.55;2.92;;;3.80;92.70;;;;;;5010931;28;20030;-67
2023/02/05 10:37:01;;;;;;;6.07;3.17;;;3.80;92.50;;;;;;5011713;28;20026;-67
2023/02/05 10:39:48;;;;;;;6.53;3.75;;;3.90;92.50;;;;;;5011734;28;20029;-67
2023/02/05 10:42:40;;;;;;;4.90;3.00;;;3.80;92.30;;;;;;4997398;28;20453;-68
2023/02/05 10:45:28;;;;;;;4.25;3.00;;;3.90;92.30;;;;;;5011160;28;20038;-68
2023/02/05 10:48:20;;;;;;;5.82;3.03;;;3.90;92.20;;;;;;5013137;28;20070;-68
2023/02/05 10:51:12;;;;;;;3.65;2.42;;;4.00;92.20;;;;;;5012257;28;20482;-69
2023/02/05 10:53:59;;;;;;;3.83;2.30;;;4.00;92.10;;;;;;5014551;28;20029;-68
2023/02/05 10:56:46;;;;;;;5.03;2.88;;;4.00;92.10;;;;;;5011313;28;20438;-69
2023/02/05 10:59:36;;;;;;;5.60;3.92;;;4.00;92.00;;;;;;5017861;28;20535;-68
2023/02/05 11:02:30;;;;;;;5.28;2.50;;;4.10;92.00;;;;;;5027763;28;20563;-68
2023/02/05 11:05:30;;;;;;;4.68;2.90;;;4.20;91.90;;;;;;5017456;28;20029;-68
2023/02/05 11:08:38;;;;;;;5.75;2.80;;;4.20;91.80;;;;;;5018704;28;20081;-69
2023/02/05 11:11:30;;;;;;;3.67;2.55;;;4.20;91.70;;;;;;5018595;28;20397;-68
2023/02/05 11:14:24;;;;;;;4.20;2.53;;;4.20;91.70;;;;;;5018594;28;20037;-69
2023/02/05 11:17:16;;;;;;;4.38;2.30;;;4.20;91.60;;;;;;5030508;28;20123;-67
2023/02/05 11:20:10;;;;;;;3.17;2.33;;;4.30;91.60;;;;;;5019217;28;20029;-68
2023/02/05 11:23:20;;;;;;;5.38;2.30;;;4.30;91.50;;;;;;5011984;28;20446;-69
2023/02/05 11:26:19;;;;;;;3.80;2.75;;;4.30;91.60;;;;;;5021933;28;20037;-68
2023/02/05 11:29:19;;;;;;;4.93;2.80;;;4.40;91.60;;;;;;5020325;28;20029;-67
2023/02/05 11:32:36;;;;;;;3.97;2.35;;;4.40;91.50;;;;;;5017263;28;20060;-68
2023/02/05 11:35:29;;;;;;;6.60;2.50;;;4.40;91.50;;;;;;5017247;28;20026;-68
2023/02/05 11:38:28;;;;;;;5.68;2.63;;;4.50;91.50;;;;;;5015019;28;20045;-68
2023/02/05 11:41:29;;;;;;;7.22;2.30;;;4.50;91.40;;;;;;5013356;28;20412;-68
2023/02/05 11:44:31;;;;;;;7.35;2.72;;;4.50;91.40;;;;;;5035791;28;20459;-68
2023/02/05 11:47:32;;;;;;;4.68;2.13;;;4.50;91.40;;;;;;5039613;28;20132;-68
2023/02/05 11:50:27;;;;;;;7.55;2.58;;;4.60;91.50;;;;;;5043611;28;20032;-68
2023/02/05 11:53:15;;;;;;;7.70;2.05;;;4.60;91.40;;;;;;5024106;28;20421;-67
2023/02/05 11:56:08;;;;;;;4.10;2.55;;;4.60;91.30;;;;;;5033765;28;20042;-68
2023/02/05 11:59:15;;;;;;;3.85;2.15;;;4.70;91.40;;;;;;5034344;28;20311;-69
2023/02/05 12:02:38;;;;;;;4.43;2.30;;;4.70;91.40;;;;;;5013467;28;20084;-68
2023/02/05 12:05:30;;;;;;;3.13;1.98;;;4.70;91.40;;;;;;4972367;28;20042;-67
2023/02/05 12:08:45;;;;;;;13.82;3.03;;;4.80;91.50;;;;;;5019442;28;20061;-67
2023/02/05 12:12:02;;;;;;;4.70;2.63;;;4.80;91.40;;;;;;5024930;28;20037;-67
2023/02/05 12:15:02;;;;;;;4.88;2.65;;;4.80;91.30;;;;;;5020382;28;20029;-67
2023/02/05 12:18:18;;;;;;;5.30;2.75;;;4.90;91.30;;;;;;5042187;28;20458;-67
2023/02/05 12:21:23;;;;;;;4.28;2.20;;;4.90;91.10;;;;;;5027318;28;20029;-67
2023/02/05 12:24:27;;;;;;;6.68;2.30;;;4.90;91.20;;;;;;5016441;28;20231;-67
2023/02/05 12:28:04;;;;;;;3.80;2.10;;;4.90;91.10;;;;;;5018431;28;20516;-68
2023/02/05 12:31:06;;;;;;;3.75;1.90;;;5.00;91.00;;;;;;4988745;28;20128;-68
2023/02/05 12:34:23;;;;;;;5.22;2.60;;;5.00;91.00;;;;;;5021027;28;20177;-68
2023/02/05 12:37:27;;;;;;;4.80;2.88;;;5.00;90.90;;;;;;5014264;28;20446;-67
2023/02/05 12:40:48;;;;;;;4.03;2.20;;;5.10;90.90;;;;;;5024922;28;20469;-67
2023/02/05 12:43:39;;;;;;;4.03;2.55;;;5.10;90.80;;;;;;5013012;28;20041;-67
2023/02/05 12:46:47;;;;;;;4.30;2.20;;;5.00;90.80;;;;;;5022807;28;20326;-68
2023/02/05 12:50:04;;;;;;;4.82;2.20;;;5.10;90.80;;;;;;5013121;28;20497;-67
2023/02/05 12:53:08;;;;;;;4.97;2.95;;;5.00;90.80;;;;;;5031277;28;20087;-67
2023/02/05 12:56:28;;;;;;;3.95;2.40;;;5.10;90.70;;;;;;5023166;28;20477;-68
2023/02/05 12:59:35;;;;;;;6.10;2.90;;;5.10;90.70;;;;;;5026510;28;20053;-67
2023/02/05 13:02:42;;;;;;;3.53;2.63;;;5.20;90.70;;;;;;5018576;28;20172;-67
2023/02/05 13:05:37;;;;;;;4.30;2.47;;;5.10;90.50;;;;;;5013196;28;20084;-67
2023/02/05 13:08:50;;;;;;;4.27;2.17;;;5.10;90.50;;;;;;5011958;28;20038;-67
2023/02/05 13:11:46;;;;;;;4.22;2.38;;;5.00;90.40;;;;;;5013452;28;20470;-67
2023/02/05 13:14:52;;;;;;;5.35;2.40;;;5.00;90.30;;;;;;5014711;28;20068;-67
2023/02/05 13:17:41;;;;;;;;;;;5.00;90.40;;;;;;5012900;28;20030;-67
2023/02/05 13:29:52;;;;;;;2.58;1.73;;;5.10;90.40;;;;;;5013577;28;20402;-67
2023/02/05 13:32:41;;;;;;;3.85;2.15;;;5.10;90.30;;;;;;5013274;28;20022;-67
2023/02/05 13:35:32;;;;;;;3.45;2.15;;;5.20;90.20;;;;;;5012623;28;20043;-67
2023/02/05 13:38:31;;;;;;;3.85;2.38;;;5.20;90.10;;;;;;5012210;28;20025;-67
2023/02/05 13:41:51;;;;;;;5.60;2.90;;;5.10;90.10;;;;;;5013567;28;20034;-67
2023/02/05 13:44:58;;;;;;;5.22;2.45;;;5.10;90.30;;;;;;5016563;28;20052;-67
2023/02/05 13:47:46;;;;;;;6.32;2.58;;;5.10;90.10;;;;;;5019400;28;20111;-67
2023/02/05 13:51:10;;;;;;;5.78;2.53;;;5.10;90.20;;;;;;5011787;28;20051;-67
2023/02/05 13:54:20;;;;;;;3.97;2.60;;;5.10;90.10;;;;;;5014471;28;20030;-67
2023/02/05 13:57:40;;;;;;;4.38;2.85;;;5.10;90.00;;;;;;5015403;28;20022;-67
2023/02/05 14:00:27;;;;;;;5.43;2.80;;;5.10;89.80;;;;;;5012809;28;20133;-67
2023/02/05 14:03:32;;;;;;;4.22;2.83;;;4.90;89.30;;;;;;5018649;28;20647;-67
2023/02/05 14:06:20;;;;;;;11.43;3.38;;;4.90;89.40;;;;;;5012857;28;20177;-67
2023/02/05 14:09:09;;;;;;;4.70;2.20;;;4.90;89.50;;;;;;5025847;28;20037;-67
2023/02/05 14:12:02;;;;;;;3.92;2.58;;;4.90;89.40;;;;;;5019516;28;20088;-67
2023/02/05 14:15:16;;;;;;;3.17;2.00;;;4.90;89.10;;;;;;5019535;28;20041;-67
2023/02/05 14:18:02;;;;;;;5.45;2.33;;;4.90;89.30;;;;;;5023421;28;20021;-67
2023/02/05 14:20:48;;;;;;;5.18;2.55;;;4.90;89.50;;;;;;5021360;28;20546;-67
2023/02/05 14:23:53;;;;;;;4.20;2.38;;;4.90;89.40;;;;;;5011820;28;20386;-67
2023/02/05 14:26:48;;;;;;;7.68;3.25;;;4.90;89.30;;;;;;5018678;28;20468;-67
2023/02/05 14:29:48;;;;;;;4.22;2.38;;;5.00;89.20;;;;;;5018561;28;20129;-67
2023/02/05 14:32:40;;;;;;;4.03;2.40;;;4.90;89.00;;;;;;5010920;28;20129;-67
2023/02/05 14:35:39;;;;;;;4.60;2.00;;;4.90;89.00;;;;;;5025577;28;20071;-67
2023/02/05 14:38:30;;;;;;;3.45;2.40;;;4.80;89.10;;;;;;5011248;28;20022;-67
2023/02/05 14:41:19;;;;;;;9.27;2.20;;;4.80;89.10;;;;;;5030877;28;20045;-67
2023/02/05 14:44:24;;;;;;;4.57;2.30;;;4.80;89.10;;;;;;5022997;28;20036;-68
2023/02/05 14:47:30;;;;;;;5.32;2.60;;;4.80;89.20;;;;;;5015803;28;20429;-68
2023/02/05 14:50:26;;;;;;;3.30;2.20;;;4.80;89.10;;;;;;5015184;28;20030;-68
2023/02/05 14:53:25;;;;;;;3.08;1.90;;;4.80;89.20;;;;;;5015745;28;20041;-68
2023/02/05 14:56:32;;;;;;;6.30;2.10;;;4.70;88.90;;;;;;5015179;28;20029;-68
2023/02/05 14:59:36;;;;;;;4.00;2.00;;;4.70;88.90;;;;;;5003523;28;20084;-67
2023/02/05 15:02:44;;;;;;;3.55;2.35;;;4.80;89.20;;;;;;5020790;28;20041;-68
2023/02/05 15:05:42;;;;;;;4.68;2.40;;;4.80;89.00;;;;;;5024901;28;20029;-68
2023/02/05 15:08:34;;;;;;;4.15;2.35;;;4.80;88.80;;;;;;5022433;28;20077;-68
2023/02/05 15:11:32;;;;;;;4.07;2.15;;;4.70;88.80;;;;;;5033452;28;20032;-67
2023/02/05 15:14:18;;;;;;;3.30;2.00;;;4.70;88.70;;;;;;5022448;28;20030;-68
2023/02/05 15:17:04;;;;;;;4.40;2.42;;;4.70;88.70;;;;;;5012909;28;20061;-68
2023/02/05 15:19:55;;;;;;;4.05;2.40;;;4.60;88.40;;;;;;5027168;28;20029;-68
2023/02/05 15:22:54;;;;;;;4.10;2.10;;;4.60;88.50;;;;;;5016720;28;20044;-68
2023/02/05 15:25:46;;;;;;;5.03;2.45;;;4.60;88.50;;;;;;5019380;28;20033;-66
2023/02/05 15:28:57;;;;;;;3.22;1.92;;;4.50;88.30;;;;;;5032563;28;20021;-67